sensor_id;sensor_type;location;lat;lon;timestamp;temperature;humidity
3067;DHT22;1544;48.834;9.194;2023-11-22T00:00:43;9.00;72.10
3067;DHT22;1544;48.834;9.194;2023-11-22T00:03:19;8.80;71.90
3067;DHT22;1544;48.834;9.194;2023-11-22T00:05:55;8.70;71.50
3067;DHT22;1544;48.834;9.194;2023-11-22T00:08:31;8.50;70.00
3067;DHT22;1544;48.834;9.194;2023-11-22T00:11:07;8.20;68.30
3067;DHT22;1544;48.834;9.194;2023-11-22T00:13:43;8.20;69.70
3067;DHT22;1544;48.834;9.194;2023-11-22T00:16:19;8.10;70.40
3067;DHT22;1544;48.834;9.194;2023-11-22T00:18:55;8.00;70.50
3067;DHT22;1544;48.834;9.194;2023-11-22T00:21:31;8.00;70.80
3067;DHT22;1544;48.834;9.194;2023-11-22T00:24:07;8.00;70.70
3067;DHT22;1544;48.834;9.194;2023-11-22T00:26:44;8.00;71.00
3067;DHT22;1544;48.834;9.194;2023-11-22T00:29:20;8.00;70.30
3067;DHT22;1544;48.834;9.194;2023-11-22T00:31:56;7.90;70.20
3067;DHT22;1544;48.834;9.194;2023-11-22T00:34:32;8.00;70.70
3067;DHT22;1544;48.834;9.194;2023-11-22T00:37:08;8.00;70.50
3067;DHT22;1544;48.834;9.194;2023-11-22T00:39:44;8.00;69.50
3067;DHT22;1544;48.834;9.194;2023-11-22T00:42:20;7.90;67.70
3067;DHT22;1544;48.834;9.194;2023-11-22T00:44:56;7.90;66.50
3067;DHT22;1544;48.834;9.194;2023-11-22T00:47:33;7.80;65.00
3067;DHT22;1544;48.834;9.194;2023-11-22T00:50:09;7.80;65.00
3067;DHT22;1544;48.834;9.194;2023-11-22T00:52:46;7.70;65.40
3067;DHT22;1544;48.834;9.194;2023-11-22T00:55:24;7.60;64.30
3067;DHT22;1544;48.834;9.194;2023-11-22T00:58:00;7.60;64.10
3067;DHT22;1544;48.834;9.194;2023-11-22T01:00:40;7.60;63.80
3067;DHT22;1544;48.834;9.194;2023-11-22T01:03:16;7.50;63.00
3067;DHT22;1544;48.834;9.194;2023-11-22T01:05:52;7.40;63.20
3067;DHT22;1544;48.834;9.194;2023-11-22T01:08:28;7.50;63.20
3067;DHT22;1544;48.834;9.194;2023-11-22T01:11:05;7.40;61.80
3067;DHT22;1544;48.834;9.194;2023-11-22T01:13:44;7.40;60.60
3067;DHT22;1544;48.834;9.194;2023-11-22T01:16:20;7.30;59.60
3067;DHT22;1544;48.834;9.194;2023-11-22T01:18:56;7.30;61.10
3067;DHT22;1544;48.834;9.194;2023-11-22T01:21:32;7.30;60.80
3067;DHT22;1544;48.834;9.194;2023-11-22T01:24:08;7.30;60.20
3067;DHT22;1544;48.834;9.194;2023-11-22T01:26:44;7.30;60.60
3067;DHT22;1544;48.834;9.194;2023-11-22T01:29:20;7.20;60.50
3067;DHT22;1544;48.834;9.194;2023-11-22T01:31:56;7.30;61.50
3067;DHT22;1544;48.834;9.194;2023-11-22T01:34:32;7.30;61.50
3067;DHT22;1544;48.834;9.194;2023-11-22T01:37:09;7.30;61.50
3067;DHT22;1544;48.834;9.194;2023-11-22T01:39:45;7.40;60.70
3067;DHT22;1544;48.834;9.194;2023-11-22T01:42:21;7.30;58.40
3067;DHT22;1544;48.834;9.194;2023-11-22T01:44:59;7.30;56.40
3067;DHT22;1544;48.834;9.194;2023-11-22T01:47:35;7.20;55.60
3067;DHT22;1544;48.834;9.194;2023-11-22T01:50:12;7.20;54.60
3067;DHT22;1544;48.834;9.194;2023-11-22T01:52:50;7.20;54.10
3067;DHT22;1544;48.834;9.194;2023-11-22T01:55:26;7.10;54.00
3067;DHT22;1544;48.834;9.194;2023-11-22T01:58:03;7.00;53.30
3067;DHT22;1544;48.834;9.194;2023-11-22T02:00:51;7.00;52.50
3067;DHT22;1544;48.834;9.194;2023-11-22T02:03:28;7.00;51.30
3067;DHT22;1544;48.834;9.194;2023-11-22T02:06:06;6.90;51.20
3067;DHT22;1544;48.834;9.194;2023-11-22T02:08:45;6.90;51.20
3067;DHT22;1544;48.834;9.194;2023-11-22T02:11:21;6.90;50.40
3067;DHT22;1544;48.834;9.194;2023-11-22T02:13:58;6.90;49.80
3067;DHT22;1544;48.834;9.194;2023-11-22T02:16:35;6.90;49.40
3067;DHT22;1544;48.834;9.194;2023-11-22T02:19:14;6.90;49.50
3067;DHT22;1544;48.834;9.194;2023-11-22T02:21:52;6.90;49.00
3067;DHT22;1544;48.834;9.194;2023-11-22T02:24:28;6.90;48.00
3067;DHT22;1544;48.834;9.194;2023-11-22T02:27:04;6.80;47.00
3067;DHT22;1544;48.834;9.194;2023-11-22T02:29:40;6.80;45.90
3067;DHT22;1544;48.834;9.194;2023-11-22T02:32:16;6.80;45.40
3067;DHT22;1544;48.834;9.194;2023-11-22T02:34:52;6.70;45.10
3067;DHT22;1544;48.834;9.194;2023-11-22T02:37:29;6.70;45.40
3067;DHT22;1544;48.834;9.194;2023-11-22T02:40:19;6.70;45.40
3067;DHT22;1544;48.834;9.194;2023-11-22T02:42:55;7.80;46.60
3067;DHT22;1544;48.834;9.194;2023-11-22T02:45:37;6.50;45.80
3067;DHT22;1544;48.834;9.194;2023-11-22T02:48:17;6.60;46.00
3067;DHT22;1544;48.834;9.194;2023-11-22T02:50:54;6.50;45.40
3067;DHT22;1544;48.834;9.194;2023-11-22T02:53:30;6.50;45.30
3067;DHT22;1544;48.834;9.194;2023-11-22T02:56:08;6.50;46.10
3067;DHT22;1544;48.834;9.194;2023-11-22T02:58:44;6.40;45.70
3067;DHT22;1544;48.834;9.194;2023-11-22T03:01:21;6.40;46.00
3067;DHT22;1544;48.834;9.194;2023-11-22T03:03:57;6.40;45.90
3067;DHT22;1544;48.834;9.194;2023-11-22T03:06:35;6.30;45.90
3067;DHT22;1544;48.834;9.194;2023-11-22T03:09:11;6.30;46.50
3067;DHT22;1544;48.834;9.194;2023-11-22T03:11:49;6.30;46.70
3067;DHT22;1544;48.834;9.194;2023-11-22T03:14:25;6.30;46.20
3067;DHT22;1544;48.834;9.194;2023-11-22T03:17:01;6.30;46.00
3067;DHT22;1544;48.834;9.194;2023-11-22T03:19:39;6.20;45.90
3067;DHT22;1544;48.834;9.194;2023-11-22T03:22:15;6.20;45.90
3067;DHT22;1544;48.834;9.194;2023-11-22T03:24:52;6.20;45.60
3067;DHT22;1544;48.834;9.194;2023-11-22T03:27:28;6.20;45.20
3067;DHT22;1544;48.834;9.194;2023-11-22T03:30:05;6.20;44.90
3067;DHT22;1544;48.834;9.194;2023-11-22T03:32:47;6.30;45.10
3067;DHT22;1544;48.834;9.194;2023-11-22T03:35:26;6.30;44.80
3067;DHT22;1544;48.834;9.194;2023-11-22T03:38:02;6.30;44.40
3067;DHT22;1544;48.834;9.194;2023-11-22T03:40:38;6.30;44.00
3067;DHT22;1544;48.834;9.194;2023-11-22T03:43:14;6.30;44.00
3067;DHT22;1544;48.834;9.194;2023-11-22T03:45:50;6.40;43.70
3067;DHT22;1544;48.834;9.194;2023-11-22T03:48:26;6.40;43.60
3067;DHT22;1544;48.834;9.194;2023-11-22T03:51:02;6.30;43.50
3067;DHT22;1544;48.834;9.194;2023-11-22T03:53:38;6.20;43.80
3067;DHT22;1544;48.834;9.194;2023-11-22T03:56:14;6.20;44.20
3067;DHT22;1544;48.834;9.194;2023-11-22T03:58:51;6.20;43.70
3067;DHT22;1544;48.834;9.194;2023-11-22T04:01:26;6.10;43.80
3067;DHT22;1544;48.834;9.194;2023-11-22T04:04:03;6.10;44.20
3067;DHT22;1544;48.834;9.194;2023-11-22T04:06:39;6.10;44.30
3067;DHT22;1544;48.834;9.194;2023-11-22T04:09:16;6.00;43.70
3067;DHT22;1544;48.834;9.194;2023-11-22T04:11:55;6.00;43.90
3067;DHT22;1544;48.834;9.194;2023-11-22T04:14:31;6.10;44.10
3067;DHT22;1544;48.834;9.194;2023-11-22T04:17:07;6.10;44.30
3067;DHT22;1544;48.834;9.194;2023-11-22T04:19:44;6.10;44.40
3067;DHT22;1544;48.834;9.194;2023-11-22T04:22:20;6.10;44.40
3067;DHT22;1544;48.834;9.194;2023-11-22T04:24:56;6.20;44.70
3067;DHT22;1544;48.834;9.194;2023-11-22T04:27:33;6.20;45.00
3067;DHT22;1544;48.834;9.194;2023-11-22T04:30:09;6.20;45.20
3067;DHT22;1544;48.834;9.194;2023-11-22T04:32:50;6.30;45.40
3067;DHT22;1544;48.834;9.194;2023-11-22T04:35:26;6.30;45.30
3067;DHT22;1544;48.834;9.194;2023-11-22T04:38:02;6.30;45.00
3067;DHT22;1544;48.834;9.194;2023-11-22T04:40:39;6.30;44.80
3067;DHT22;1544;48.834;9.194;2023-11-22T04:43:15;6.20;44.30
3067;DHT22;1544;48.834;9.194;2023-11-22T04:45:51;6.20;44.30
3067;DHT22;1544;48.834;9.194;2023-11-22T04:48:27;6.20;44.00
3067;DHT22;1544;48.834;9.194;2023-11-22T04:51:03;6.20;43.70
3067;DHT22;1544;48.834;9.194;2023-11-22T04:53:39;6.20;43.30
3067;DHT22;1544;48.834;9.194;2023-11-22T04:56:15;6.10;43.30
3067;DHT22;1544;48.834;9.194;2023-11-22T04:58:52;6.10;43.30
3067;DHT22;1544;48.834;9.194;2023-11-22T05:01:32;6.10;43.60
3067;DHT22;1544;48.834;9.194;2023-11-22T05:04:08;6.10;43.80
3067;DHT22;1544;48.834;9.194;2023-11-22T05:06:46;6.10;43.50
3067;DHT22;1544;48.834;9.194;2023-11-22T05:09:22;6.10;43.30
3067;DHT22;1544;48.834;9.194;2023-11-22T05:11:58;6.10;43.40
3067;DHT22;1544;48.834;9.194;2023-11-22T05:14:34;6.10;43.40
3067;DHT22;1544;48.834;9.194;2023-11-22T05:17:10;6.10;43.40
3067;DHT22;1544;48.834;9.194;2023-11-22T05:19:46;6.10;43.40
3067;DHT22;1544;48.834;9.194;2023-11-22T05:22:22;6.00;43.10
3067;DHT22;1544;48.834;9.194;2023-11-22T05:24:58;6.00;43.30
3067;DHT22;1544;48.834;9.194;2023-11-22T05:27:34;6.00;43.00
3067;DHT22;1544;48.834;9.194;2023-11-22T05:30:11;6.00;42.70
3067;DHT22;1544;48.834;9.194;2023-11-22T05:32:48;6.00;42.70
3067;DHT22;1544;48.834;9.194;2023-11-22T05:35:24;5.90;42.80
3067;DHT22;1544;48.834;9.194;2023-11-22T05:38:00;5.90;43.00
3067;DHT22;1544;48.834;9.194;2023-11-22T05:40:37;5.80;42.70
3067;DHT22;1544;48.834;9.194;2023-11-22T05:43:14;5.90;42.50
3067;DHT22;1544;48.834;9.194;2023-11-22T05:45:51;5.90;42.10
3067;DHT22;1544;48.834;9.194;2023-11-22T05:48:27;5.80;42.10
3067;DHT22;1544;48.834;9.194;2023-11-22T05:51:03;5.70;42.50
3067;DHT22;1544;48.834;9.194;2023-11-22T05:53:39;5.70;42.50
3067;DHT22;1544;48.834;9.194;2023-11-22T05:56:15;5.70;42.70
3067;DHT22;1544;48.834;9.194;2023-11-22T05:58:52;5.70;42.80
3067;DHT22;1544;48.834;9.194;2023-11-22T06:01:28;5.70;42.90
3067;DHT22;1544;48.834;9.194;2023-11-22T06:04:04;5.80;42.90
3067;DHT22;1544;48.834;9.194;2023-11-22T06:06:40;5.70;42.80
3067;DHT22;1544;48.834;9.194;2023-11-22T06:09:17;5.80;42.30
3067;DHT22;1544;48.834;9.194;2023-11-22T06:11:55;5.70;42.10
3067;DHT22;1544;48.834;9.194;2023-11-22T06:14:31;5.70;41.90
3067;DHT22;1544;48.834;9.194;2023-11-22T06:17:07;5.60;42.10
3067;DHT22;1544;48.834;9.194;2023-11-22T06:19:44;5.60;42.00
3067;DHT22;1544;48.834;9.194;2023-11-22T06:22:20;5.60;42.20
3067;DHT22;1544;48.834;9.194;2023-11-22T06:24:57;5.60;42.30
3067;DHT22;1544;48.834;9.194;2023-11-22T06:27:33;5.60;42.20
3067;DHT22;1544;48.834;9.194;2023-11-22T06:30:09;5.60;42.20
3067;DHT22;1544;48.834;9.194;2023-11-22T06:32:45;5.60;42.00
3067;DHT22;1544;48.834;9.194;2023-11-22T06:35:22;5.50;41.50
3067;DHT22;1544;48.834;9.194;2023-11-22T06:37:58;5.50;41.20
3067;DHT22;1544;48.834;9.194;2023-11-22T06:40:34;5.50;40.60
3067;DHT22;1544;48.834;9.194;2023-11-22T06:43:10;5.40;40.40
3067;DHT22;1544;48.834;9.194;2023-11-22T06:45:46;5.40;40.00
3067;DHT22;1544;48.834;9.194;2023-11-22T06:48:22;5.30;39.60
3067;DHT22;1544;48.834;9.194;2023-11-22T06:50:59;5.20;39.60
3067;DHT22;1544;48.834;9.194;2023-11-22T06:53:35;5.20;39.40
3067;DHT22;1544;48.834;9.194;2023-11-22T06:56:11;5.10;39.30
3067;DHT22;1544;48.834;9.194;2023-11-22T06:58:47;5.00;39.40
3067;DHT22;1544;48.834;9.194;2023-11-22T07:01:23;5.00;39.20
3067;DHT22;1544;48.834;9.194;2023-11-22T07:04:03;5.00;39.00
3067;DHT22;1544;48.834;9.194;2023-11-22T07:06:40;5.00;39.30
3067;DHT22;1544;48.834;9.194;2023-11-22T07:09:16;5.00;39.50
3067;DHT22;1544;48.834;9.194;2023-11-22T07:11:52;5.00;39.10
3067;DHT22;1544;48.834;9.194;2023-11-22T07:14:28;5.00;39.10
3067;DHT22;1544;48.834;9.194;2023-11-22T07:17:05;4.90;39.00
3067;DHT22;1544;48.834;9.194;2023-11-22T07:19:42;4.90;39.00
3067;DHT22;1544;48.834;9.194;2023-11-22T07:22:23;4.90;38.80
3067;DHT22;1544;48.834;9.194;2023-11-22T07:24:59;4.90;39.00
3067;DHT22;1544;48.834;9.194;2023-11-22T07:27:38;5.00;39.00
3067;DHT22;1544;48.834;9.194;2023-11-22T07:30:15;5.00;38.50
3067;DHT22;1544;48.834;9.194;2023-11-22T07:32:51;5.00;38.60
3067;DHT22;1544;48.834;9.194;2023-11-22T07:35:28;5.10;38.30
3067;DHT22;1544;48.834;9.194;2023-11-22T07:38:04;5.10;38.40
3067;DHT22;1544;48.834;9.194;2023-11-22T07:40:40;5.00;38.30
3067;DHT22;1544;48.834;9.194;2023-11-22T07:43:17;5.00;38.30
3067;DHT22;1544;48.834;9.194;2023-11-22T07:45:54;5.00;38.40
3067;DHT22;1544;48.834;9.194;2023-11-22T07:48:30;5.10;38.40
3067;DHT22;1544;48.834;9.194;2023-11-22T07:51:06;5.10;38.30
3067;DHT22;1544;48.834;9.194;2023-11-22T07:53:43;5.00;38.10
3067;DHT22;1544;48.834;9.194;2023-11-22T07:56:19;5.00;38.00
3067;DHT22;1544;48.834;9.194;2023-11-22T07:58:55;5.10;38.00
3067;DHT22;1544;48.834;9.194;2023-11-22T08:01:31;5.10;38.20
3067;DHT22;1544;48.834;9.194;2023-11-22T08:04:08;5.10;38.00
3067;DHT22;1544;48.834;9.194;2023-11-22T08:06:45;5.10;37.80
3067;DHT22;1544;48.834;9.194;2023-11-22T08:09:23;5.00;38.10
3067;DHT22;1544;48.834;9.194;2023-11-22T08:11:59;5.20;38.50
3067;DHT22;1544;48.834;9.194;2023-11-22T08:14:41;5.20;38.80
3067;DHT22;1544;48.834;9.194;2023-11-22T08:17:20;5.20;38.60
3067;DHT22;1544;48.834;9.194;2023-11-22T08:19:56;5.20;38.60
3067;DHT22;1544;48.834;9.194;2023-11-22T08:22:32;5.20;38.20
3067;DHT22;1544;48.834;9.194;2023-11-22T08:25:11;5.10;38.00
3067;DHT22;1544;48.834;9.194;2023-11-22T08:27:49;5.10;38.00
3067;DHT22;1544;48.834;9.194;2023-11-22T08:30:25;5.10;37.40
3067;DHT22;1544;48.834;9.194;2023-11-22T08:33:01;5.10;37.40
3067;DHT22;1544;48.834;9.194;2023-11-22T08:35:38;5.10;37.60
3067;DHT22;1544;48.834;9.194;2023-11-22T08:38:14;5.20;37.60
3067;DHT22;1544;48.834;9.194;2023-11-22T08:40:50;5.20;37.40
3067;DHT22;1544;48.834;9.194;2023-11-22T08:43:26;5.20;37.30
3067;DHT22;1544;48.834;9.194;2023-11-22T08:46:02;5.10;37.30
3067;DHT22;1544;48.834;9.194;2023-11-22T08:48:49;5.20;37.60
3067;DHT22;1544;48.834;9.194;2023-11-22T08:51:28;5.20;37.80
3067;DHT22;1544;48.834;9.194;2023-11-22T08:54:05;5.30;38.10
3067;DHT22;1544;48.834;9.194;2023-11-22T08:56:41;5.20;37.00
3067;DHT22;1544;48.834;9.194;2023-11-22T08:59:18;5.20;36.90
3067;DHT22;1544;48.834;9.194;2023-11-22T09:01:54;5.10;37.00
3067;DHT22;1544;48.834;9.194;2023-11-22T09:04:30;5.10;37.20
3067;DHT22;1544;48.834;9.194;2023-11-22T09:07:07;5.10;37.00
3067;DHT22;1544;48.834;9.194;2023-11-22T09:09:45;5.10;37.00
3067;DHT22;1544;48.834;9.194;2023-11-22T09:12:21;5.20;36.90
3067;DHT22;1544;48.834;9.194;2023-11-22T09:14:57;5.20;36.90
3067;DHT22;1544;48.834;9.194;2023-11-22T09:17:33;5.30;36.90
3067;DHT22;1544;48.834;9.194;2023-11-22T09:20:10;5.20;37.00
3067;DHT22;1544;48.834;9.194;2023-11-22T09:22:49;5.30;37.20
3067;DHT22;1544;48.834;9.194;2023-11-22T09:25:27;5.40;37.20
3067;DHT22;1544;48.834;9.194;2023-11-22T09:28:06;5.40;36.70
3067;DHT22;1544;48.834;9.194;2023-11-22T09:30:45;5.40;36.50
3067;DHT22;1544;48.834;9.194;2023-11-22T09:33:21;5.40;36.70
3067;DHT22;1544;48.834;9.194;2023-11-22T09:35:57;5.40;36.90
3067;DHT22;1544;48.834;9.194;2023-11-22T09:38:34;4.60;36.30
3067;DHT22;1544;48.834;9.194;2023-11-22T09:41:10;5.50;36.80
3067;DHT22;1544;48.834;9.194;2023-11-22T09:43:47;5.50;36.60
3067;DHT22;1544;48.834;9.194;2023-11-22T09:46:26;5.40;36.50
3067;DHT22;1544;48.834;9.194;2023-11-22T09:49:08;5.50;36.60
3067;DHT22;1544;48.834;9.194;2023-11-22T09:51:48;5.60;36.20
3067;DHT22;1544;48.834;9.194;2023-11-22T09:54:28;5.50;36.00
3067;DHT22;1544;48.834;9.194;2023-11-22T09:57:06;5.50;36.10
3067;DHT22;1544;48.834;9.194;2023-11-22T09:59:49;5.50;36.40
3067;DHT22;1544;48.834;9.194;2023-11-22T10:02:28;5.60;36.20
3067;DHT22;1544;48.834;9.194;2023-11-22T10:05:07;5.70;36.20
3067;DHT22;1544;48.834;9.194;2023-11-22T10:07:48;5.70;36.00
3067;DHT22;1544;48.834;9.194;2023-11-22T10:10:25;5.70;36.00
3067;DHT22;1544;48.834;9.194;2023-11-22T10:13:03;6.50;36.50
3067;DHT22;1544;48.834;9.194;2023-11-22T10:15:40;5.70;36.20
3067;DHT22;1544;48.834;9.194;2023-11-22T10:18:16;5.80;36.50
3067;DHT22;1544;48.834;9.194;2023-11-22T10:20:54;5.90;36.30
3067;DHT22;1544;48.834;9.194;2023-11-22T10:23:30;6.00;36.40
3067;DHT22;1544;48.834;9.194;2023-11-22T10:26:09;6.00;36.40
3067;DHT22;1544;48.834;9.194;2023-11-22T10:28:46;6.00;36.30
3067;DHT22;1544;48.834;9.194;2023-11-22T10:31:23;6.10;36.30
3067;DHT22;1544;48.834;9.194;2023-11-22T10:34:00;6.10;36.30
3067;DHT22;1544;48.834;9.194;2023-11-22T10:36:37;6.20;36.50
3067;DHT22;1544;48.834;9.194;2023-11-22T10:39:13;6.30;36.60
3067;DHT22;1544;48.834;9.194;2023-11-22T10:41:52;6.40;36.70
3067;DHT22;1544;48.834;9.194;2023-11-22T10:44:28;6.40;36.50
3067;DHT22;1544;48.834;9.194;2023-11-22T10:47:05;6.40;36.30
3067;DHT22;1544;48.834;9.194;2023-11-22T10:49:43;6.50;36.20
3067;DHT22;1544;48.834;9.194;2023-11-22T10:52:19;6.50;36.20
3067;DHT22;1544;48.834;9.194;2023-11-22T10:55:02;6.60;36.20
3067;DHT22;1544;48.834;9.194;2023-11-22T10:57:46;6.60;36.10
3067;DHT22;1544;48.834;9.194;2023-11-22T11:00:31;6.70;36.20
3067;DHT22;1544;48.834;9.194;2023-11-22T11:03:08;6.70;35.90
3067;DHT22;1544;48.834;9.194;2023-11-22T11:05:59;6.80;35.90
3067;DHT22;1544;48.834;9.194;2023-11-22T11:08:41;6.80;35.90
3067;DHT22;1544;48.834;9.194;2023-11-22T11:11:20;6.90;35.70
3067;DHT22;1544;48.834;9.194;2023-11-22T11:13:57;6.90;35.80
3067;DHT22;1544;48.834;9.194;2023-11-22T11:16:36;6.90;35.70
3067;DHT22;1544;48.834;9.194;2023-11-22T11:19:17;6.90;35.80
3067;DHT22;1544;48.834;9.194;2023-11-22T11:21:54;6.90;35.80
3067;DHT22;1544;48.834;9.194;2023-11-22T11:24:38;7.00;35.70
3067;DHT22;1544;48.834;9.194;2023-11-22T11:27:15;6.90;35.30
3067;DHT22;1544;48.834;9.194;2023-11-22T11:29:52;6.90;35.50
3067;DHT22;1544;48.834;9.194;2023-11-22T11:32:31;6.90;35.60
3067;DHT22;1544;48.834;9.194;2023-11-22T11:35:17;7.00;35.40
3067;DHT22;1544;48.834;9.194;2023-11-22T11:37:59;6.90;34.80
3067;DHT22;1544;48.834;9.194;2023-11-22T11:40:37;6.80;34.50
3067;DHT22;1544;48.834;9.194;2023-11-22T11:43:13;6.80;34.40
3067;DHT22;1544;48.834;9.194;2023-11-22T11:45:49;6.70;34.70
3067;DHT22;1544;48.834;9.194;2023-11-22T11:48:25;6.60;34.60
3067;DHT22;1544;48.834;9.194;2023-11-22T11:51:02;6.50;34.70
3067;DHT22;1544;48.834;9.194;2023-11-22T11:53:38;6.40;35.00
3067;DHT22;1544;48.834;9.194;2023-11-22T11:56:15;6.50;35.00
3067;DHT22;1544;48.834;9.194;2023-11-22T11:58:56;6.40;35.10
3067;DHT22;1544;48.834;9.194;2023-11-22T12:01:35;6.50;35.20
3067;DHT22;1544;48.834;9.194;2023-11-22T12:04:11;6.40;35.00
3067;DHT22;1544;48.834;9.194;2023-11-22T12:06:47;6.40;34.80
3067;DHT22;1544;48.834;9.194;2023-11-22T12:09:24;6.40;34.70
3067;DHT22;1544;48.834;9.194;2023-11-22T12:12:01;6.40;34.70
3067;DHT22;1544;48.834;9.194;2023-11-22T12:14:39;6.40;34.60
3067;DHT22;1544;48.834;9.194;2023-11-22T12:17:15;6.40;34.70
3067;DHT22;1544;48.834;9.194;2023-11-22T12:19:52;6.40;34.60
3067;DHT22;1544;48.834;9.194;2023-11-22T12:22:28;6.30;34.50
3067;DHT22;1544;48.834;9.194;2023-11-22T12:25:08;6.30;34.80
3067;DHT22;1544;48.834;9.194;2023-11-22T12:27:45;6.30;35.00
3067;DHT22;1544;48.834;9.194;2023-11-22T12:30:32;6.30;35.30
3067;DHT22;1544;48.834;9.194;2023-11-22T12:33:10;6.30;35.20
3067;DHT22;1544;48.834;9.194;2023-11-22T12:35:49;6.30;35.10
3067;DHT22;1544;48.834;9.194;2023-11-22T12:38:27;6.20;35.30
3067;DHT22;1544;48.834;9.194;2023-11-22T12:41:06;6.30;35.10
3067;DHT22;1544;48.834;9.194;2023-11-22T12:43:42;6.30;35.20
3067;DHT22;1544;48.834;9.194;2023-11-22T12:46:25;6.40;35.40
3067;DHT22;1544;48.834;9.194;2023-11-22T12:49:05;6.40;35.40
3067;DHT22;1544;48.834;9.194;2023-11-22T12:51:52;6.50;35.40
3067;DHT22;1544;48.834;9.194;2023-11-22T12:54:29;6.40;35.20
3067;DHT22;1544;48.834;9.194;2023-11-22T12:57:10;6.50;35.30
3067;DHT22;1544;48.834;9.194;2023-11-22T12:59:48;6.40;35.00
3067;DHT22;1544;48.834;9.194;2023-11-22T13:02:24;6.40;34.70
3067;DHT22;1544;48.834;9.194;2023-11-22T13:05:01;6.40;34.80
3067;DHT22;1544;48.834;9.194;2023-11-22T13:07:37;6.40;35.00
3067;DHT22;1544;48.834;9.194;2023-11-22T13:10:13;6.40;34.60
3067;DHT22;1544;48.834;9.194;2023-11-22T13:12:53;6.40;34.20
3067;DHT22;1544;48.834;9.194;2023-11-22T13:15:29;6.20;33.80
3067;DHT22;1544;48.834;9.194;2023-11-22T13:18:06;6.20;34.20
3067;DHT22;1544;48.834;9.194;2023-11-22T13:20:44;6.10;34.40
3067;DHT22;1544;48.834;9.194;2023-11-22T13:23:21;6.20;34.40
3067;DHT22;1544;48.834;9.194;2023-11-22T13:25:57;6.20;34.10
3067;DHT22;1544;48.834;9.194;2023-11-22T13:28:33;6.20;34.10
3067;DHT22;1544;48.834;9.194;2023-11-22T13:31:09;6.20;34.10
3067;DHT22;1544;48.834;9.194;2023-11-22T13:33:48;6.20;34.20
3067;DHT22;1544;48.834;9.194;2023-11-22T13:36:23;6.10;34.20
3067;DHT22;1544;48.834;9.194;2023-11-22T13:38:59;6.10;34.50
3067;DHT22;1544;48.834;9.194;2023-11-22T13:41:35;6.20;34.80
3067;DHT22;1544;48.834;9.194;2023-11-22T13:44:11;6.10;34.50
3067;DHT22;1544;48.834;9.194;2023-11-22T13:46:47;6.20;34.50
3067;DHT22;1544;48.834;9.194;2023-11-22T13:49:24;6.10;34.40
3067;DHT22;1544;48.834;9.194;2023-11-22T13:52:00;6.10;34.30
3067;DHT22;1544;48.834;9.194;2023-11-22T13:54:37;6.00;34.40
3067;DHT22;1544;48.834;9.194;2023-11-22T13:57:15;6.00;34.40
3067;DHT22;1544;48.834;9.194;2023-11-22T13:59:51;6.10;34.60
3067;DHT22;1544;48.834;9.194;2023-11-22T14:02:27;6.10;34.80
3067;DHT22;1544;48.834;9.194;2023-11-22T14:05:03;6.20;34.90
3067;DHT22;1544;48.834;9.194;2023-11-22T14:07:43;6.20;34.90
3067;DHT22;1544;48.834;9.194;2023-11-22T14:10:20;6.10;34.50
3067;DHT22;1544;48.834;9.194;2023-11-22T14:12:57;6.10;34.20
3067;DHT22;1544;48.834;9.194;2023-11-22T14:15:36;6.00;34.00
3067;DHT22;1544;48.834;9.194;2023-11-22T14:18:13;6.00;34.00
3067;DHT22;1544;48.834;9.194;2023-11-22T14:20:49;6.00;34.00
3067;DHT22;1544;48.834;9.194;2023-11-22T14:23:25;6.00;34.10
3067;DHT22;1544;48.834;9.194;2023-11-22T14:26:01;5.60;33.80
3067;DHT22;1544;48.834;9.194;2023-11-22T14:28:38;6.60;34.60
3067;DHT22;1544;48.834;9.194;2023-11-22T14:31:14;5.90;34.10
3067;DHT22;1544;48.834;9.194;2023-11-22T14:33:51;5.90;34.10
3067;DHT22;1544;48.834;9.194;2023-11-22T14:36:27;5.90;34.10
3067;DHT22;1544;48.834;9.194;2023-11-22T14:39:03;5.90;34.20
3067;DHT22;1544;48.834;9.194;2023-11-22T14:41:42;5.90;34.00
3067;DHT22;1544;48.834;9.194;2023-11-22T14:44:21;5.80;33.80
3067;DHT22;1544;48.834;9.194;2023-11-22T14:46:57;5.80;34.00
3067;DHT22;1544;48.834;9.194;2023-11-22T14:49:34;5.80;34.20
3067;DHT22;1544;48.834;9.194;2023-11-22T14:52:21;5.80;34.20
3067;DHT22;1544;48.834;9.194;2023-11-22T14:54:58;5.80;33.90
3067;DHT22;1544;48.834;9.194;2023-11-22T14:57:37;5.80;33.80
3067;DHT22;1544;48.834;9.194;2023-11-22T15:00:13;5.80;33.70
3067;DHT22;1544;48.834;9.194;2023-11-22T15:02:50;5.80;34.20
3067;DHT22;1544;48.834;9.194;2023-11-22T15:05:31;5.80;34.00
3067;DHT22;1544;48.834;9.194;2023-11-22T15:08:08;5.80;34.10
3067;DHT22;1544;48.834;9.194;2023-11-22T15:10:43;5.80;34.00
3067;DHT22;1544;48.834;9.194;2023-11-22T15:13:19;5.90;34.10
3067;DHT22;1544;48.834;9.194;2023-11-22T15:15:55;5.90;34.10
3067;DHT22;1544;48.834;9.194;2023-11-22T15:18:32;5.90;34.20
3067;DHT22;1544;48.834;9.194;2023-11-22T15:21:08;5.90;34.20
3067;DHT22;1544;48.834;9.194;2023-11-22T15:23:44;6.00;34.40
3067;DHT22;1544;48.834;9.194;2023-11-22T15:26:21;5.90;34.40
3067;DHT22;1544;48.834;9.194;2023-11-22T15:28:58;6.00;34.40
3067;DHT22;1544;48.834;9.194;2023-11-22T15:31:33;5.80;33.30
3067;DHT22;1544;48.834;9.194;2023-11-22T15:34:10;5.80;33.50
3067;DHT22;1544;48.834;9.194;2023-11-22T15:36:47;5.70;33.60
3067;DHT22;1544;48.834;9.194;2023-11-22T15:39:22;5.70;33.70
3067;DHT22;1544;48.834;9.194;2023-11-22T15:41:58;5.70;33.50
3067;DHT22;1544;48.834;9.194;2023-11-22T15:44:35;5.70;33.50
3067;DHT22;1544;48.834;9.194;2023-11-22T15:47:11;5.70;34.00
3067;DHT22;1544;48.834;9.194;2023-11-22T15:49:49;5.70;33.50
3067;DHT22;1544;48.834;9.194;2023-11-22T15:52:26;5.70;33.80
3067;DHT22;1544;48.834;9.194;2023-11-22T15:55:04;5.70;33.80
3067;DHT22;1544;48.834;9.194;2023-11-22T15:57:41;5.70;33.90
3067;DHT22;1544;48.834;9.194;2023-11-22T16:00:17;5.70;33.90
3067;DHT22;1544;48.834;9.194;2023-11-22T16:02:53;5.70;33.80
3067;DHT22;1544;48.834;9.194;2023-11-22T16:05:29;5.70;33.60
3067;DHT22;1544;48.834;9.194;2023-11-22T16:08:07;5.70;33.30
3067;DHT22;1544;48.834;9.194;2023-11-22T16:10:44;5.70;33.30
3067;DHT22;1544;48.834;9.194;2023-11-22T16:13:20;5.70;33.40
3067;DHT22;1544;48.834;9.194;2023-11-22T16:15:57;5.70;33.50
3067;DHT22;1544;48.834;9.194;2023-11-22T16:18:35;5.80;33.60
3067;DHT22;1544;48.834;9.194;2023-11-22T16:21:13;5.70;32.90
3067;DHT22;1544;48.834;9.194;2023-11-22T16:23:49;5.70;32.90
3067;DHT22;1544;48.834;9.194;2023-11-22T16:26:26;5.70;32.70
3067;DHT22;1544;48.834;9.194;2023-11-22T16:29:03;5.60;32.40
3067;DHT22;1544;48.834;9.194;2023-11-22T16:31:38;5.60;32.40
3067;DHT22;1544;48.834;9.194;2023-11-22T16:34:15;5.60;32.50
3067;DHT22;1544;48.834;9.194;2023-11-22T16:36:51;5.60;32.40
3067;DHT22;1544;48.834;9.194;2023-11-22T16:39:30;5.70;32.60
3067;DHT22;1544;48.834;9.194;2023-11-22T16:42:06;5.60;32.00
3067;DHT22;1544;48.834;9.194;2023-11-22T16:44:42;5.60;32.00
3067;DHT22;1544;48.834;9.194;2023-11-22T16:47:19;5.50;31.90
3067;DHT22;1544;48.834;9.194;2023-11-22T16:49:55;5.50;32.00
3067;DHT22;1544;48.834;9.194;2023-11-22T16:52:31;5.50;32.20
3067;DHT22;1544;48.834;9.194;2023-11-22T16:55:09;5.60;32.20
3067;DHT22;1544;48.834;9.194;2023-11-22T16:57:47;5.60;32.40
3067;DHT22;1544;48.834;9.194;2023-11-22T17:00:24;5.60;31.70
3067;DHT22;1544;48.834;9.194;2023-11-22T17:03:01;5.60;31.60
3067;DHT22;1544;48.834;9.194;2023-11-22T17:05:38;5.50;31.80
3067;DHT22;1544;48.834;9.194;2023-11-22T17:08:14;5.50;32.00
3067;DHT22;1544;48.834;9.194;2023-11-22T17:10:50;5.50;32.00
3067;DHT22;1544;48.834;9.194;2023-11-22T17:13:26;5.50;32.00
3067;DHT22;1544;48.834;9.194;2023-11-22T17:16:02;5.50;31.90
3067;DHT22;1544;48.834;9.194;2023-11-22T17:18:38;5.50;31.90
3067;DHT22;1544;48.834;9.194;2023-11-22T17:21:14;5.50;32.00